Time;durP1;ratioP1;P1;durP2;ratioP2;P2;SDS_P1;SDS_P2;PMS_P1;PMS_P2;Temp;Humidity;BMP_temperature;BMP_pressure;BME280_temperature;BME280_humidity;BME280_pressure;Samples;Min_cycle;Max_cycle;Signal;HPM_P1;HPM_P2
2024/01/30 00:00:59;;;;;;;11.50;5.22;;;;;;;0.37;59.22;97185.91;5060599;28;20087;-78
2024/01/30 00:03:24;;;;;;;10.13;4.78;;;;;;;0.04;59.40;97126.00;5060028;28;20134;-78
2024/01/30 00:05:50;;;;;;;12.73;5.65;;;;;;;0.13;59.00;97131.06;5060630;28;20129;-79
2024/01/30 00:08:15;;;;;;;14.90;5.28;;;;;;;0.03;59.34;97127.78;5060746;28;20044;-78
2024/01/30 00:10:41;;;;;;;11.50;5.07;;;;;;;0.41;59.28;97186.38;5060847;28;20048;-79
2024/01/30 00:13:07;;;;;;;9.27;4.72;;;;;;;-0.20;59.07;97078.00;5061201;28;20046;-78
2024/01/30 00:15:32;;;;;;;7.85;4.60;;;;;;;0.25;59.20;97142.81;5077383;28;20496;-78
2024/01/30 00:17:58;;;;;;;15.82;5.55;;;;;;;0.16;58.92;97114.25;5060413;28;20123;-78
2024/01/30 00:20:23;;;;;;;9.25;4.95;;;;;;;0.63;58.63;97192.78;5060649;28;20047;-78
2024/01/30 00:22:49;;;;;;;9.82;5.05;;;;;;;0.67;58.86;97201.94;5060355;28;20508;-78
2024/01/30 00:25:14;;;;;;;10.73;4.30;;;;;;;0.14;59.01;97166.63;5077511;28;20071;-78
2024/01/30 00:27:40;;;;;;;10.75;5.70;;;;;;;0.13;58.85;97138.06;5060092;28;20051;-78
2024/01/30 00:30:06;;;;;;;12.63;5.15;;;;;;;0.18;59.00;97154.88;5060425;28;20048;-78
2024/01/30 00:32:32;;;;;;;11.90;5.05;;;;;;;0.30;58.64;97161.44;5059909;28;20047;-79
2024/01/30 00:34:58;;;;;;;11.13;5.20;;;;;;;0.14;58.44;97118.84;5059983;28;20428;-78
2024/01/30 00:37:23;;;;;;;9.90;5.10;;;;;;;0.08;58.33;97127.31;5059499;28;20409;-78
2024/01/30 00:39:49;;;;;;;11.95;5.32;;;;;;;0.40;58.21;97192.59;5059820;28;20516;-78
2024/01/30 00:42:15;;;;;;;14.75;5.20;;;;;;;0.34;58.58;97154.09;5076304;28;20040;-78
2024/01/30 00:44:40;;;;;;;9.45;4.75;;;;;;;0.24;58.51;97172.50;5059939;28;20044;-78
2024/01/30 00:47:06;;;;;;;9.23;4.60;;;;;;;0.01;58.55;97145.38;5059438;28;20429;-78
2024/01/30 00:49:31;;;;;;;11.40;4.47;;;;;;;0.33;58.81;97199.44;5059566;28;20039;-78
2024/01/30 00:51:57;;;;;;;8.52;4.57;;;;;;;0.03;58.91;97145.22;5072888;28;20059;-82
2024/01/30 00:54:23;;;;;;;8.45;4.68;;;;;;;0.43;58.72;97207.13;5084170;28;20058;-81
2024/01/30 00:56:48;;;;;;;9.25;4.90;;;;;;;0.36;58.34;97173.03;5100722;28;20032;-82
2024/01/30 00:59:14;;;;;;;10.27;4.90;;;;;;;0.38;58.95;97191.97;5100648;28;20056;-83
2024/01/30 01:01:40;;;;;;;11.23;4.80;;;;;;;0.36;58.70;97179.06;5083625;28;20044;-83
2024/01/30 01:04:05;;;;;;;8.63;4.65;;;;;;;0.28;58.47;97165.19;5100335;28;20058;-83
2024/01/30 01:06:31;;;;;;;13.55;5.15;;;;;;;0.32;58.71;97195.19;5067142;28;20032;-83
2024/01/30 01:08:56;;;;;;;11.48;5.25;;;;;;;-0.01;58.54;97127.31;5083012;28;20115;-83
2024/01/30 01:11:22;;;;;;;12.13;5.43;;;;;;;-0.17;58.40;97089.94;5076546;28;20037;-81
2024/01/30 01:13:47;;;;;;;11.85;5.50;;;;;;;0.52;58.51;97190.50;5082572;28;20043;-81
2024/01/30 01:16:13;;;;;;;10.77;5.15;;;;;;;0.17;58.21;97140.19;5082536;28;20066;-83
2024/01/30 01:18:39;;;;;;;9.77;5.18;;;;;;;0.54;58.18;97215.44;5095892;28;20036;-82
2024/01/30 01:21:04;;;;;;;11.85;5.03;;;;;;;0.11;58.45;97143.44;5067108;28;20058;-83
2024/01/30 01:23:30;;;;;;;10.98;4.55;;;;;;;0.36;58.93;97178.25;5082237;28;20109;-82
2024/01/30 01:25:56;;;;;;;11.27;5.40;;;;;;;0.43;58.49;97194.88;5082220;28;20074;-83
2024/01/30 01:28:21;;;;;;;12.90;5.07;;;;;;;0.43;58.83;97197.50;5082483;28;20040;-83
2024/01/30 01:30:47;;;;;;;9.50;5.15;;;;;;;-0.24;59.13;97092.38;5098230;28;20036;-83
2024/01/30 01:33:14;;;;;;;17.15;5.00;;;;;;;0.38;59.42;97210.22;5081842;28;20066;-84
2024/01/30 01:35:40;;;;;;;12.63;4.80;;;;;;;0.24;59.23;97182.94;5081407;28;20036;-84
2024/01/30 01:38:05;;;;;;;9.13;4.72;;;;;;;-0.33;59.68;97110.75;5081546;28;20054;-84
2024/01/30 01:40:31;;;;;;;8.90;5.47;;;;;;;0.21;60.59;97206.75;5081246;28;20044;-83
2024/01/30 01:42:56;;;;;;;12.63;5.75;;;;;;;-0.43;60.36;97132.53;5081286;28;20032;-82
2024/01/30 01:45:45;;;;;;;10.25;4.90;;;;;;;0.08;60.87;97197.75;5009460;28;20455;-80
2024/01/30 01:48:10;;;;;;;14.30;5.80;;;;;;;-0.21;60.58;97132.94;5021326;28;20134;-80
2024/01/30 01:50:39;;;;;;;11.70;5.35;;;;;;;-0.11;59.96;97176.16;5066730;28;20036;-83
2024/01/30 01:53:06;;;;;;;11.00;5.50;;;;;;;0.09;60.03;97199.38;5057912;28;20036;-78
2024/01/30 01:55:32;;;;;;;13.15;5.95;;;;;;;-0.86;60.73;97051.91;5057992;28;20604;-78
2024/01/30 01:57:57;;;;;;;15.70;5.53;;;;;;;-0.26;60.42;97148.25;5058764;28;20040;-78
2024/01/30 02:00:23;;;;;;;10.57;5.18;;;;;;;-0.15;60.32;97164.41;5058806;28;20063;-79
2024/01/30 02:02:48;;;;;;;17.98;5.75;;;;;;;-0.12;59.74;97171.91;5057797;28;20451;-78
2024/01/30 02:05:15;;;;;;;15.25;5.20;;;;;;;0.15;59.88;97207.41;5058027;28;20070;-78
2024/01/30 02:07:40;;;;;;;12.05;5.57;;;;;;;0.06;59.99;97203.13;5061031;28;20052;-80
2024/01/30 02:10:08;;;;;;;12.57;5.03;;;;;;;-0.03;59.79;97201.47;5065971;28;20048;-80
2024/01/30 02:12:33;;;;;;;11.02;5.00;;;;;;;0.01;59.97;97192.34;5082527;28;20040;-79
2024/01/30 02:14:59;;;;;;;12.77;4.75;;;;;;;0.04;60.07;97196.41;5065874;28;20040;-81
2024/01/30 02:17:24;;;;;;;15.05;5.68;;;;;;;0.15;60.01;97209.19;5065000;28;20424;-80
2024/01/30 02:19:50;;;;;;;12.30;5.85;;;;;;;-0.12;59.92;97155.47;5064936;28;20107;-80
2024/01/30 02:22:15;;;;;;;17.27;5.70;;;;;;;0.11;59.92;97211.28;5064893;28;20036;-80
2024/01/30 02:24:41;;;;;;;14.30;5.38;;;;;;;-0.32;59.87;97138.44;5064439;28;20492;-80
2024/01/30 02:27:06;;;;;;;11.40;5.25;;;;;;;-0.52;59.77;97130.06;5064813;28;20048;-79
2024/01/30 02:29:32;;;;;;;9.50;5.40;;;;;;;-0.06;59.91;97212.19;5064018;28;20039;-80
2024/01/30 02:31:57;;;;;;;8.15;4.38;;;;;;;-0.19;60.86;97198.78;5064646;28;20039;-80
2024/01/30 02:34:23;;;;;;;18.10;4.78;;;;;;;-0.26;60.12;97172.53;5080485;28;20036;-80
2024/01/30 02:36:49;;;;;;;10.43;4.70;;;;;;;-0.06;60.09;97199.16;5063846;28;20445;-80
2024/01/30 02:39:14;;;;;;;10.98;4.63;;;;;;;-0.67;60.03;97108.97;5081105;28;20073;-80
2024/01/30 02:41:40;;;;;;;9.77;5.10;;;;;;;-0.19;59.67;97167.50;5065278;28;20439;-80
2024/01/30 02:44:06;;;;;;;14.38;4.72;;;;;;;-0.13;59.79;97170.28;5064234;28;20475;-79
2024/01/30 02:46:31;;;;;;;8.98;4.57;;;;;;;0.15;59.41;97206.59;5063540;28;20040;-80
2024/01/30 02:48:57;;;;;;;7.47;4.07;;;;;;;0.08;58.98;97175.06;5079937;28;20547;-80
2024/01/30 02:51:22;;;;;;;10.85;5.70;;;;;;;0.13;58.87;97201.50;5063866;28;20081;-80
2024/01/30 02:53:48;;;;;;;9.50;4.60;;;;;;;0.01;58.93;97179.28;5080763;28;20119;-80
2024/01/30 02:56:14;;;;;;;9.65;4.88;;;;;;;0.27;58.86;97197.47;5063221;28;20028;-80
2024/01/30 02:58:39;;;;;;;12.80;5.47;;;;;;;0.09;58.87;97165.44;5063591;28;20043;-80
2024/01/30 03:01:06;;;;;;;9.80;5.20;;;;;;;0.28;58.25;97204.31;5080000;28;20048;-80
2024/01/30 03:03:31;;;;;;;9.13;5.00;;;;;;;0.08;57.92;97195.94;5080993;28;20051;-80
2024/01/30 03:05:57;;;;;;;9.02;4.68;;;;;;;-0.05;58.54;97182.53;5063459;28;20040;-80
2024/01/30 03:08:22;;;;;;;16.83;4.45;;;;;;;-0.21;58.97;97154.59;5063669;28;20539;-80
2024/01/30 03:10:48;;;;;;;8.05;4.43;;;;;;;0.10;58.59;97198.38;5064268;28;20424;-82
2024/01/30 03:13:14;;;;;;;8.27;3.90;;;;;;;-0.26;58.43;97117.78;5078682;28;20107;-82
2024/01/30 03:15:40;;;;;;;7.30;4.22;;;;;;;0.17;58.20;97187.16;5079061;28;20040;-83
2024/01/30 03:18:05;;;;;;;7.07;3.95;;;;;;;0.07;57.74;97162.22;5095595;28;20058;-83
2024/01/30 03:20:31;;;;;;;10.20;4.07;;;;;;;-0.34;57.51;97090.84;5078537;28;20071;-83
2024/01/30 03:22:57;;;;;;;10.23;4.35;;;;;;;0.25;57.41;97178.53;5080018;28;20111;-82
2024/01/30 03:25:22;;;;;;;9.02;4.80;;;;;;;-0.22;57.33;97095.59;5080217;28;20137;-82
2024/01/30 03:27:48;;;;;;;10.73;4.90;;;;;;;-0.26;57.27;97091.69;5080582;28;20024;-83
2024/01/30 03:30:14;;;;;;;20.75;4.72;;;;;;;-0.17;57.20;97095.16;5078215;28;20104;-83
2024/01/30 03:32:40;;;;;;;8.32;4.00;;;;;;;0.46;57.02;97193.75;5080318;28;20127;-83
2024/01/30 03:35:05;;;;;;;9.32;4.00;;;;;;;0.37;56.58;97178.09;5082226;28;20032;-82
2024/01/30 03:37:31;;;;;;;8.10;3.83;;;;;;;0.01;56.75;97103.63;5081976;28;20032;-83
2024/01/30 03:39:57;;;;;;;13.93;4.30;;;;;;;0.52;56.60;97193.94;5081612;28;20112;-83
2024/01/30 03:42:22;;;;;;;7.35;3.70;;;;;;;0.31;56.98;97155.22;5081454;28;20044;-83
2024/01/30 03:44:48;;;;;;;6.55;3.67;;;;;;;0.16;56.74;97127.31;5081540;28;20059;-83
2024/01/30 03:47:14;;;;;;;9.85;4.00;;;;;;;0.16;56.67;97122.09;5082460;28;20095;-83
2024/01/30 03:49:40;;;;;;;8.38;3.78;;;;;;;-0.25;56.97;97084.69;5081411;28;20072;-83
2024/01/30 03:52:05;;;;;;;6.85;3.20;;;;;;;-0.10;56.35;97130.03;5081938;28;20056;-84
2024/01/30 03:54:31;;;;;;;6.03;2.88;;;;;;;-0.24;56.94;97113.22;5081996;28;20047;-82
2024/01/30 03:56:56;;;;;;;6.93;3.20;;;;;;;-0.11;55.78;97131.00;5082032;28;20047;-83
2024/01/30 03:59:23;;;;;;;8.20;3.70;;;;;;;0.14;55.68;97153.56;5098741;28;20032;-83
2024/01/30 04:01:52;;;;;;;8.80;3.22;;;;;;;0.32;56.18;97176.91;5082086;28;20055;-83
2024/01/30 04:04:18;;;;;;;10.38;3.38;;;;;;;-0.15;56.02;97111.44;5081662;28;20048;-83
2024/01/30 04:06:44;;;;;;;6.30;3.25;;;;;;;-0.04;55.59;97118.97;5081846;28;20115;-83
2024/01/30 04:09:11;;;;;;;7.18;3.30;;;;;;;-0.08;55.98;97123.66;5081923;28;20131;-83
2024/01/30 04:11:36;;;;;;;4.47;3.08;;;;;;;-0.59;55.79;97030.84;5081135;28;20040;-82
2024/01/30 04:14:02;;;;;;;10.43;3.60;;;;;;;0.41;55.72;97175.13;5081466;28;20082;-83
2024/01/30 04:16:27;;;;;;;12.30;4.13;;;;;;;-0.25;55.80;97069.88;5081331;28;20077;-81
2024/01/30 04:18:53;;;;;;;8.48;3.83;;;;;;;0.32;55.45;97156.03;5082406;28;20081;-81
2024/01/30 04:21:20;;;;;;;13.85;4.38;;;;;;;-0.02;55.82;97102.19;5092951;28;20047;-80
2024/01/30 04:23:46;;;;;;;6.80;3.70;;;;;;;0.28;55.31;97144.28;5081766;28;20169;-80
2024/01/30 04:26:12;;;;;;;11.88;3.95;;;;;;;0.11;55.84;97117.38;5065113;28;20059;-80
2024/01/30 04:28:38;;;;;;;8.75;3.88;;;;;;;0.29;55.67;97165.03;5055816;28;20059;-79
2024/01/30 04:31:03;;;;;;;7.90;3.28;;;;;;;0.44;55.89;97193.91;5050337;28;20109;-80
2024/01/30 04:33:29;;;;;;;6.57;3.60;;;;;;;-0.03;56.41;97113.59;5049720;28;20503;-80
2024/01/30 04:35:54;;;;;;;10.18;4.13;;;;;;;0.20;56.61;97152.13;5050906;28;20037;-79
2024/01/30 04:38:20;;;;;;;18.92;4.32;;;;;;;0.38;56.52;97194.56;5057687;28;20066;-80
2024/01/30 04:40:45;;;;;;;13.40;5.15;;;;;;;0.11;56.13;97142.63;5065674;28;20058;-80
2024/01/30 04:43:11;;;;;;;17.60;5.30;;;;;;;0.34;56.02;97188.84;5064706;28;20040;-80
2024/01/30 04:45:37;;;;;;;14.13;5.30;;;;;;;-0.35;56.89;97103.06;5065286;28;20048;-80
2024/01/30 04:48:03;;;;;;;10.68;4.88;;;;;;;-0.13;57.29;97139.00;5066061;28;20036;-79
2024/01/30 04:50:28;;;;;;;15.82;5.47;;;;;;;0.06;57.28;97166.59;5085829;28;20040;-84
2024/01/30 04:52:54;;;;;;;15.68;5.72;;;;;;;-0.16;57.07;97130.69;5062472;28;20032;-84
2024/01/30 04:55:19;;;;;;;16.13;6.13;;;;;;;-0.62;57.20;97078.06;5079273;28;20040;-84
2024/01/30 04:57:45;;;;;;;17.55;6.95;;;;;;;0.23;56.93;97209.22;5078758;28;20044;-83
2024/01/30 05:00:11;;;;;;;22.58;6.57;;;;;;;0.10;56.55;97185.34;5080174;28;20099;-82
2024/01/30 05:02:36;;;;;;;23.52;5.95;;;;;;;-0.21;56.31;97146.78;5079581;28;20072;-82
2024/01/30 05:05:03;;;;;;;12.15;5.18;;;;;;;-0.43;56.21;97150.78;5079362;28;20043;-84
2024/01/30 05:07:28;;;;;;;19.48;6.07;;;;;;;-0.30;56.31;97165.16;5068816;28;20040;-82
2024/01/30 05:09:54;;;;;;;18.85;6.57;;;;;;;-0.06;56.88;97220.84;5075677;28;20044;-82
2024/01/30 05:12:19;;;;;;;22.58;6.65;;;;;;;-0.61;57.34;97146.66;5079837;28;20098;-82
2024/01/30 05:14:45;;;;;;;28.73;6.03;;;;;;;-0.20;57.80;97205.78;5079126;28;20092;-81
2024/01/30 05:17:13;;;;;;;13.18;4.95;;;;;;;-0.09;57.54;97207.31;5065726;28;20044;-83
2024/01/30 05:19:39;;;;;;;15.35;5.75;;;;;;;-0.28;57.30;97163.22;5069106;28;20074;-81
2024/01/30 05:22:04;;;;;;;15.07;6.00;;;;;;;-0.44;57.18;97154.38;5044709;28;20040;-80
2024/01/30 05:24:30;;;;;;;16.67;6.20;;;;;;;-0.18;57.36;97196.03;5066398;28;20040;-81
2024/01/30 05:26:56;;;;;;;19.80;6.55;;;;;;;-0.06;57.42;97220.84;5070093;28;20044;-81
2024/01/30 05:29:22;;;;;;;22.10;6.10;;;;;;;-0.05;58.03;97219.88;5052952;28;20041;-81
2024/01/30 05:31:47;;;;;;;32.15;7.18;;;;;;;-0.34;57.76;97172.50;5069107;28;20051;-81
2024/01/30 05:34:13;;;;;;;17.50;5.90;;;;;;;-0.21;58.12;97225.03;5058392;28;20029;-81
2024/01/30 05:36:38;;;;;;;34.35;6.00;;;;;;;-0.32;58.12;97190.59;5086668;28;20047;-81
2024/01/30 05:39:04;;;;;;;30.83;6.60;;;;;;;-0.27;58.74;97214.41;5055934;28;20798;-80
2024/01/30 05:41:30;;;;;;;16.23;6.57;;;;;;;-0.55;59.72;97222.41;5061906;28;20048;-80
2024/01/30 05:43:56;;;;;;;13.38;6.07;;;;;;;-0.38;59.84;97218.91;5043297;28;20091;-79
2024/01/30 05:46:21;;;;;;;18.70;6.15;;;;;;;-0.53;58.91;97178.75;5054830;28;20108;-80
2024/01/30 05:48:47;;;;;;;15.43;6.07;;;;;;;-0.35;59.20;97223.00;5061833;28;20093;-80
2024/01/30 05:51:14;;;;;;;13.57;5.65;;;;;;;-0.41;58.45;97200.97;5063910;28;20368;-81
2024/01/30 05:53:39;;;;;;;15.57;5.32;;;;;;;-0.41;58.50;97218.41;5061052;28;20045;-82
2024/01/30 05:56:05;;;;;;;11.63;5.18;;;;;;;-0.59;58.88;97205.44;5083237;28;20067;-81
2024/01/30 05:58:31;;;;;;;19.10;5.88;;;;;;;-0.51;58.85;97220.31;5049030;28;20039;-79
2024/01/30 06:00:57;;;;;;;10.18;5.35;;;;;;;-0.43;59.43;97217.75;5083354;28;20052;-79
2024/01/30 06:03:23;;;;;;;10.88;5.18;;;;;;;-0.44;58.63;97216.91;5026376;28;20056;-79
2024/01/30 06:05:48;;;;;;;10.52;5.25;;;;;;;-0.38;58.72;97223.28;5029098;28;20201;-79
2024/01/30 06:08:14;;;;;;;12.93;5.85;;;;;;;-0.43;58.42;97210.75;5026399;28;20133;-80
2024/01/30 06:10:40;;;;;;;19.52;5.68;;;;;;;-1.59;57.96;97028.91;5042742;28;20048;-79
2024/01/30 06:13:06;;;;;;;10.63;5.35;;;;;;;-0.46;57.83;97195.41;5041585;28;20045;-79
2024/01/30 06:15:32;;;;;;;29.63;6.50;;;;;;;-0.33;57.65;97226.28;5044758;28;20104;-78
2024/01/30 06:17:58;;;;;;;18.70;6.85;;;;;;;-0.68;57.67;97172.47;5024895;28;20036;-79
2024/01/30 06:20:24;;;;;;;17.33;6.60;;;;;;;-0.71;57.63;97161.56;5045103;28;20083;-79
2024/01/30 06:22:50;;;;;;;15.32;6.65;;;;;;;-0.24;57.70;97225.34;5039589;28;20064;-80
2024/01/30 06:25:16;;;;;;;21.67;6.63;;;;;;;-0.30;57.64;97241.59;5037349;28;20127;-78
2024/01/30 06:27:42;;;;;;;20.08;8.65;;;;;;;-0.76;57.71;97143.78;5041918;28;20096;-81
2024/01/30 06:30:08;;;;;;;28.05;9.90;;;;;;;-0.09;57.69;97243.84;5045278;28;20051;-81
2024/01/30 06:32:35;;;;;;;25.75;8.40;;;;;;;-0.29;57.96;97211.94;5062396;28;20103;-80
2024/01/30 06:35:01;;;;;;;28.88;8.90;;;;;;;-0.39;58.19;97198.22;5024263;28;20059;-79
2024/01/30 06:37:28;;;;;;;32.63;8.85;;;;;;;-0.87;58.38;97099.78;5024540;28;20043;-81
2024/01/30 06:39:53;;;;;;;36.25;10.25;;;;;;;-0.20;57.88;97208.41;5039127;28;20282;-81
2024/01/30 06:42:19;;;;;;;36.28;9.63;;;;;;;-0.16;57.75;97214.97;5041754;28;20063;-81
2024/01/30 06:44:45;;;;;;;26.20;8.70;;;;;;;-1.07;57.60;97056.72;5038505;28;20055;-81
2024/01/30 06:47:10;;;;;;;30.92;8.45;;;;;;;0.06;57.75;97237.03;5038699;28;20048;-81
2024/01/30 06:49:39;;;;;;;37.22;8.55;;;;;;;-0.45;57.80;97137.09;5027368;28;20475;-81
2024/01/30 06:52:08;;;;;;;23.48;8.52;;;;;;;0.08;57.59;97231.66;5034537;28;20044;-80
2024/01/30 06:54:33;;;;;;;28.08;8.43;;;;;;;-0.01;57.12;97213.38;5038279;28;20044;-80
2024/01/30 06:57:00;;;;;;;24.13;7.78;;;;;;;0.17;57.27;97233.31;5030524;28;20043;-80
2024/01/30 06:59:25;;;;;;;53.40;8.43;;;;;;;-0.76;57.19;97086.47;5023740;28;20589;-80
2024/01/30 07:01:51;;;;;;;29.65;9.30;;;;;;;0.17;56.48;97247.16;5029890;28;20151;-80
2024/01/30 07:04:18;;;;;;;17.20;8.48;;;;;;;0.10;56.58;97240.13;5034676;28;20571;-80
2024/01/30 07:06:43;;;;;;;14.98;6.25;;;;;;;-0.23;56.35;97177.41;5027897;28;21240;-80
2024/01/30 07:09:09;;;;;;;12.27;5.32;;;;;;;-0.38;56.01;97190.22;5016290;28;20056;-80
2024/01/30 07:11:34;;;;;;;15.23;5.32;;;;;;;0.09;56.24;97239.31;5006434;28;20119;-83
2024/01/30 07:14:00;;;;;;;12.60;5.18;;;;;;;-0.17;56.32;97191.63;5007657;28;20040;-82
2024/01/30 07:16:26;;;;;;;12.93;5.55;;;;;;;0.05;56.17;97208.50;5022222;28;20070;-84
2024/01/30 07:18:51;;;;;;;9.27;4.18;;;;;;;-0.71;55.14;97075.59;5017974;28;20354;-81
2024/01/30 07:21:17;;;;;;;10.80;4.00;;;;;;;0.22;54.51;97229.28;5017621;28;20043;-81
2024/01/30 07:23:45;;;;;;;8.25;4.30;;;;;;;-0.15;53.84;97180.06;5017177;28;20075;-83
2024/01/30 07:26:11;;;;;;;9.90;4.28;;;;;;;-0.46;53.86;97145.09;5017342;28;20075;-81
2024/01/30 07:28:37;;;;;;;12.75;4.18;;;;;;;0.03;53.87;97237.34;5040223;28;20064;-80
2024/01/30 07:31:03;;;;;;;9.32;4.70;;;;;;;-0.36;54.12;97195.28;5043972;28;20051;-80
2024/01/30 07:33:28;;;;;;;15.18;5.25;;;;;;;-0.10;54.00;97211.72;5037851;28;20120;-81
2024/01/30 07:35:54;;;;;;;11.68;4.80;;;;;;;-0.10;53.73;97197.84;5045890;28;20144;-82
2024/01/30 07:38:20;;;;;;;9.18;3.88;;;;;;;0.09;53.54;97249.75;5051214;28;20036;-81
2024/01/30 07:40:45;;;;;;;5.60;2.95;;;;;;;-0.75;52.80;97123.75;5032165;28;20359;-81
2024/01/30 07:43:11;;;;;;;6.18;3.10;;;;;;;-0.40;52.70;97144.44;5036375;28;20127;-81
2024/01/30 07:45:38;;;;;;;7.50;3.40;;;;;;;0.29;52.97;97232.88;5066425;28;20192;-81
2024/01/30 07:48:05;;;;;;;16.92;4.80;;;;;;;0.01;52.71;97192.34;5029252;28;20037;-82
2024/01/30 07:50:30;;;;;;;10.15;4.40;;;;;;;-0.43;52.25;97116.06;5038960;28;20439;-80
2024/01/30 07:52:56;;;;;;;10.50;3.50;;;;;;;-0.15;53.04;97182.66;5036834;28;20123;-81
2024/01/30 07:55:28;;;;;;;9.15;3.72;;;;;;;0.30;52.20;97225.88;5035885;28;20052;-82
2024/01/30 07:57:54;;;;;;;5.30;3.30;;;;;;;-0.45;52.00;97142.28;5042308;28;20104;-82
2024/01/30 08:00:21;;;;;;;11.18;3.22;;;;;;;-0.18;51.94;97172.56;5039995;28;20056;-81
2024/01/30 08:02:46;;;;;;;8.25;3.20;;;;;;;-0.43;51.81;97137.75;5052928;28;20043;-81
2024/01/30 08:05:14;;;;;;;9.52;3.67;;;;;;;0.20;52.04;97233.81;5038501;28;20119;-82
2024/01/30 08:07:40;;;;;;;19.80;5.55;;;;;;;-0.20;52.58;97207.59;5037159;28;20048;-82
2024/01/30 08:10:06;;;;;;;6.97;4.03;;;;;;;-0.11;52.56;97177.97;5042672;28;20059;-82
2024/01/30 08:12:31;;;;;;;8.40;3.75;;;;;;;0.13;52.09;97206.72;5039174;28;20051;-82
2024/01/30 08:14:57;;;;;;;7.90;3.70;;;;;;;-0.39;51.93;97117.41;5028693;28;20040;-81
2024/01/30 08:17:23;;;;;;;9.27;3.97;;;;;;;0.16;51.87;97201.19;5043869;28;20057;-82
2024/01/30 08:19:48;;;;;;;13.60;4.75;;;;;;;0.05;51.96;97171.97;5042959;28;20335;-83
2024/01/30 08:22:14;;;;;;;12.85;5.40;;;;;;;0.30;51.72;97187.53;5065783;28;20131;-83
2024/01/30 08:24:41;;;;;;;9.73;3.80;;;;;;;-0.03;52.14;97146.69;5043408;28;20036;-83
2024/01/30 08:27:09;;;;;;;11.90;4.45;;;;;;;0.56;51.67;97228.34;5041690;28;20055;-83
2024/01/30 08:29:37;;;;;;;9.95;3.95;;;;;;;-0.14;51.04;97103.44;5029445;28;20787;-83
2024/01/30 08:32:05;;;;;;;9.13;4.20;;;;;;;0.51;51.22;97213.19;5031255;28;20302;-82
2024/01/30 08:34:30;;;;;;;13.10;4.95;;;;;;;0.52;51.00;97206.16;5037759;28;20051;-81
2024/01/30 08:36:56;;;;;;;21.63;6.20;;;;;;;0.38;51.19;97189.34;5007467;28;20483;-81
2024/01/30 08:39:21;;;;;;;7.65;4.20;;;;;;;-0.07;50.93;97094.00;5032917;28;20048;-82
2024/01/30 08:41:47;;;;;;;13.30;4.18;;;;;;;0.10;50.66;97128.75;5025781;28;21520;-82
2024/01/30 08:44:12;;;;;;;9.20;4.55;;;;;;;0.73;50.51;97215.16;5021716;28;20281;-82
2024/01/30 08:46:38;;;;;;;7.78;4.15;;;;;;;0.68;50.89;97187.91;5019745;28;20139;-82
2024/01/30 08:49:06;;;;;;;17.20;5.47;;;;;;;0.92;50.58;97239.31;5011695;28;20086;-82
2024/01/30 08:51:32;;;;;;;20.23;6.22;;;;;;;0.19;51.12;97134.81;5025429;28;20037;-81
2024/01/30 08:53:57;;;;;;;9.68;4.38;;;;;;;0.24;51.04;97180.31;5025619;28;20440;-82
2024/01/30 08:56:23;;;;;;;6.43;3.38;;;;;;;0.42;50.47;97202.88;5051476;28;20028;-82
2024/01/30 08:58:48;;;;;;;12.50;3.72;;;;;;;0.48;50.67;97229.16;5041263;28;20044;-84
2024/01/30 09:01:14;;;;;;;10.35;4.30;;;;;;;0.70;50.75;97243.38;5032207;28;20068;-81
2024/01/30 09:03:41;;;;;;;15.65;4.07;;;;;;;0.97;50.88;97250.09;5027746;28;20431;-79
2024/01/30 09:06:10;;;;;;;7.57;3.70;;;;;;;1.05;51.29;97244.88;5047056;28;20444;-78
2024/01/30 09:08:37;;;;;;;9.38;4.32;;;;;;;0.77;51.38;97195.56;5043990;28;20050;-84
2024/01/30 09:11:12;;;;;;;10.65;3.85;;;;;;;0.21;51.11;97081.50;5041707;28;20032;-85
2024/01/30 09:13:37;;;;;;;16.13;5.30;;;;;;;-0.09;51.18;97041.22;5070796;22;20064;-89
2024/01/30 09:16:03;;;;;;;206.88;16.50;;;;;;;0.33;51.11;97090.63;5055383;28;20039;-88
2024/01/30 09:18:29;;;;;;;12.98;5.20;;;;;;;-0.47;50.80;96950.56;5062453;28;20056;-88
2024/01/30 09:20:55;;;;;;;12.55;5.07;;;;;;;0.05;51.04;97003.22;5048229;28;20086;-88
2024/01/30 09:23:21;;;;;;;14.55;4.90;;;;;;;0.16;51.41;96989.03;5048948;28;20131;-89
2024/01/30 09:25:47;;;;;;;14.02;6.18;;;;;;;0.18;51.41;97007.94;5048271;28;20043;-89
2024/01/30 09:28:13;;;;;;;12.23;5.45;;;;;;;1.67;51.07;97235.50;5046034;28;20051;-90
2024/01/30 09:30:44;;;;;;;8.70;4.13;;;;;;;-1.41;51.08;96796.44;5049682;28;20126;-90
2024/01/30 09:33:10;;;;;;;18.27;5.13;;;;;;;-0.48;51.38;96930.69;5053490;28;20036;-90
2024/01/30 09:35:36;;;;;;;6.38;3.70;;;;;;;-2.87;51.10;96520.50;5041939;28;20044;-91
2024/01/30 09:38:02;;;;;;;7.70;4.00;;;;;;;0.99;51.88;97159.31;5097145;23;20047;-82
2024/01/30 09:40:28;;;;;;;9.95;4.47;;;;;;;0.90;51.78;97140.22;5105011;27;20039;-83
2024/01/30 09:42:53;;;;;;;9.77;4.18;;;;;;;0.97;52.37;97183.00;5107837;27;20058;-83
2024/01/30 09:45:24;;;;;;;6.22;3.55;;;;;;;0.96;51.99;97151.81;5090455;27;20141;-80
2024/01/30 09:47:50;;;;;;;10.43;4.90;;;;;;;1.31;52.05;97193.22;5111303;27;20050;-83
2024/01/30 09:50:16;;;;;;;17.63;5.32;;;;;;;1.63;51.94;97218.47;5109083;27;20239;-81
2024/01/30 09:52:42;;;;;;;6.30;3.70;;;;;;;0.85;52.59;97111.16;5078363;27;20046;-81
2024/01/30 09:55:08;;;;;;;12.73;3.28;;;;;;;1.51;52.85;97214.59;5105575;27;20347;-82
2024/01/30 09:57:34;;;;;;;8.68;3.67;;;;;;;1.40;53.14;97180.94;5085863;27;20131;-81
2024/01/30 10:00:00;;;;;;;9.13;4.30;;;;;;;1.34;52.12;97179.84;5070157;27;20046;-83
2024/01/30 10:02:25;;;;;;;8.52;3.95;;;;;;;1.46;52.88;97195.97;5084472;27;20047;-81
2024/01/30 10:04:51;;;;;;;9.38;3.28;;;;;;;1.64;51.65;97193.16;5071833;27;20142;-82
2024/01/30 10:07:18;;;;;;;14.63;4.53;;;;;;;1.19;50.63;97147.53;5087795;27;20051;-81
2024/01/30 10:09:45;;;;;;;11.93;4.20;;;;;;;1.44;51.46;97182.25;5090863;27;20050;-81
2024/01/30 10:12:11;;;;;;;12.30;4.18;;;;;;;1.53;50.83;97184.66;5090932;27;20774;-81
2024/01/30 10:14:40;;;;;;;11.00;3.55;;;;;;;-1.57;50.52;96719.16;5102655;22;20063;-88
2024/01/30 10:17:09;;;;;;;7.07;3.47;;;;;;;-0.09;50.66;96918.63;5043468;28;20032;-87
2024/01/30 10:19:40;;;;;;;16.60;4.20;;;;;;;1.55;50.80;97177.47;5050454;28;20062;-85
2024/01/30 10:22:06;;;;;;;18.20;3.97;;;;;;;0.50;50.39;96989.63;5060815;28;20036;-89
2024/01/30 10:24:33;;;;;;;6.97;4.03;;;;;;;0.47;50.93;96963.84;5047332;28;20044;-89
2024/01/30 10:27:01;;;;;;;8.40;3.58;;;;;;;1.41;51.14;97107.59;5070144;28;20054;-87
2024/01/30 10:29:27;;;;;;;6.85;3.65;;;;;;;2.53;49.68;97086.13;5048456;28;20120;-90
2024/01/30 10:32:04;;;;;;;11.68;3.78;;;;;;;2.27;46.96;96939.09;5066371;28;20486;-89
2024/01/30 10:34:30;;;;;;;8.48;4.10;;;;;;;2.85;45.16;96871.97;5050724;28;20124;-88
2024/01/30 10:39:32;;;;;;;6.75;3.20;;;;;;;6.32;41.05;97203.38;5063872;28;20052;-85
2024/01/30 10:42:00;;;;;;;8.60;3.42;;;;;;;6.87;40.13;97148.72;5025928;28;20028;-85
2024/01/30 10:44:55;;;;;;;5.90;3.40;;;;;;;5.90;38.09;96816.50;5036220;28;20035;-84
2024/01/30 10:47:27;;;;;;;6.43;3.35;;;;;;;8.80;36.94;97194.56;5043144;28;20075;-87
2024/01/30 10:49:54;;;;;;;5.80;3.00;;;;;;;6.48;35.69;96717.25;5025152;22;21423;-86
2024/01/30 10:52:20;;;;;;;14.18;3.13;;;;;;;7.56;34.69;96803.22;5016500;28;20044;-88
2024/01/30 10:54:46;;;;;;;5.15;3.08;;;;;;;8.61;33.41;96933.69;5048375;28;20049;-85
2024/01/30 10:57:11;;;;;;;7.63;3.10;;;;;;;9.65;33.19;97104.84;5032116;28;20136;-88
2024/01/30 10:59:37;;;;;;;8.65;3.13;;;;;;;6.53;33.80;96727.97;5012106;28;20052;-87
2024/01/30 11:02:03;;;;;;;11.50;4.53;;;;;;;8.94;34.17;97160.06;5015948;28;21597;-87
2024/01/30 11:04:38;;;;;;;6.22;3.30;;;;;;;4.63;36.15;96609.69;5023739;28;20118;-85
2024/01/30 11:07:26;;;;;;;4.10;2.65;;;;;;;7.94;36.23;97169.50;5043652;28;20044;-86
2024/01/30 11:09:58;;;;;;;8.25;2.70;;;;;;;4.97;38.07;96770.84;5017571;28;20088;-86
2024/01/30 11:12:27;;;;;;;9.55;2.85;;;;;;;4.76;37.32;96742.91;5027831;28;20096;-86
2024/01/30 11:15:15;;;;;;;7.03;2.78;;;;;;;3.79;37.56;96603.22;5037549;28;20051;-87
2024/01/30 11:17:47;;;;;;;13.45;3.33;;;;;;;7.22;38.08;97158.09;5032226;28;20246;-86
2024/01/30 11:20:25;;;;;;;14.05;3.08;;;;;;;6.91;38.42;97156.06;5064505;28;20036;-85
2024/01/30 11:22:52;;;;;;;7.50;3.13;;;;;;;6.79;38.19;97170.03;5037077;28;20032;-86
2024/01/30 11:25:20;;;;;;;6.03;3.08;;;;;;;1.95;40.62;96516.31;5034849;28;20573;-87
2024/01/30 11:27:50;;;;;;;9.32;3.38;;;;;;;3.15;41.05;96721.47;5037652;28;20048;-86
2024/01/30 11:30:26;;;;;;;4.57;2.85;;;;;;;2.66;41.41;96731.91;5044562;28;20097;-86
2024/01/30 11:33:29;;;;;;;8.70;3.72;;;;;;;2.93;42.50;96811.56;5013699;28;20089;-87